createdAt,value
2017-07-04T00:00:12.376Z,1013.63
2017-07-04T00:01:12.356Z,1013.61
2017-07-04T00:02:12.342Z,1013.65
2017-07-04T00:03:12.317Z,1013.62
2017-07-04T00:04:12.299Z,1013.55
2017-07-04T00:05:12.277Z,1013.58
2017-07-04T00:06:12.259Z,1013.56
2017-07-04T00:07:12.238Z,1013.57
2017-07-04T00:08:12.218Z,1013.56
2017-07-04T00:09:12.202Z,1013.59
2017-07-04T00:10:12.183Z,1013.62
2017-07-04T00:11:12.156Z,1013.6
2017-07-04T00:12:12.139Z,1013.57
2017-07-04T00:13:12.124Z,1013.6
2017-07-04T00:14:12.099Z,1013.58
2017-07-04T00:15:12.079Z,1013.63
2017-07-04T00:16:12.062Z,1013.57
2017-07-04T00:17:12.041Z,1013.6
2017-07-04T00:18:12.020Z,1013.58
2017-07-04T00:19:12.000Z,1013.52
2017-07-04T00:20:11.980Z,1013.59
2017-07-04T00:21:11.962Z,1013.58
2017-07-04T00:22:11.942Z,1013.56
2017-07-04T00:23:11.921Z,1013.52
2017-07-04T00:24:11.901Z,1013.54
2017-07-04T00:25:11.880Z,1013.53
2017-07-04T00:26:11.864Z,1013.5
2017-07-04T00:27:11.841Z,1013.52
2017-07-04T00:28:11.822Z,1013.49
2017-07-04T00:29:11.804Z,1013.48
2017-07-04T00:30:11.782Z,1013.5
2017-07-04T00:31:11.763Z,1013.46
2017-07-04T00:32:11.742Z,1013.45
2017-07-04T00:33:11.724Z,1013.46
2017-07-04T00:34:11.702Z,1013.46
2017-07-04T00:35:11.683Z,1013.47
2017-07-04T00:36:11.662Z,1013.49
2017-07-04T00:37:11.643Z,1013.51
2017-07-04T00:38:11.624Z,1013.48
2017-07-04T00:39:11.600Z,1013.51
2017-07-04T00:40:11.583Z,1013.52
2017-07-04T00:41:11.563Z,1013.58
2017-07-04T00:42:11.544Z,1013.53
2017-07-04T00:43:11.529Z,1013.51
2017-07-04T00:44:11.505Z,1013.57
2017-07-04T00:45:11.484Z,1013.54
2017-07-04T00:46:11.465Z,1013.53
2017-07-04T00:47:11.444Z,1013.56
2017-07-04T00:48:11.425Z,1013.56
2017-07-04T00:49:11.404Z,1013.53
2017-07-04T00:50:11.389Z,1013.53
2017-07-04T00:51:11.366Z,1013.5
2017-07-04T00:52:11.344Z,1013.53
2017-07-04T00:53:11.323Z,1013.52
2017-07-04T00:54:11.304Z,1013.5
2017-07-04T00:55:11.286Z,1013.49
2017-07-04T00:56:11.267Z,1013.51
2017-07-04T00:57:11.252Z,1013.49
2017-07-04T00:58:11.225Z,1013.54
2017-07-04T00:59:11.203Z,1013.58
2017-07-04T01:00:11.185Z,1013.55
2017-07-04T01:01:11.163Z,1013.54
2017-07-04T01:02:11.144Z,1013.51
2017-07-04T01:03:11.123Z,1013.52
2017-07-04T01:04:11.104Z,1013.5
2017-07-04T01:05:11.086Z,1013.51
2017-07-04T01:06:11.061Z,1013.5
2017-07-04T01:07:11.046Z,1013.51
2017-07-04T01:08:11.022Z,1013.53
2017-07-04T01:09:11.004Z,1013.53
2017-07-04T01:10:10.985Z,1013.52
2017-07-04T01:11:10.963Z,1013.54
2017-07-04T01:12:10.943Z,1013.5
2017-07-04T01:13:10.925Z,1013.55
2017-07-04T01:14:10.904Z,1013.55
2017-07-04T01:15:10.882Z,1013.55
2017-07-04T01:16:10.863Z,1013.55
2017-07-04T01:17:10.847Z,1013.54
2017-07-04T01:18:10.823Z,1013.51
2017-07-04T01:19:10.804Z,1013.52
2017-07-04T01:20:10.781Z,1013.54
2017-07-04T01:21:10.763Z,1013.55
2017-07-04T01:22:10.741Z,1013.49
2017-07-04T01:23:10.722Z,1013.51
2017-07-04T01:24:10.708Z,1013.52
2017-07-04T01:25:10.682Z,1013.49
2017-07-04T01:26:10.661Z,1013.51
2017-07-04T01:27:10.644Z,1013.48
2017-07-04T01:28:10.623Z,1013.46
2017-07-04T01:29:10.602Z,1013.47
2017-07-04T01:30:10.582Z,1013.47
2017-07-04T01:31:10.562Z,1013.44
2017-07-04T01:32:10.548Z,1013.43
2017-07-04T01:33:10.521Z,1013.43
2017-07-04T01:34:10.749Z,1013.46
2017-07-04T01:35:10.476Z,1013.42
2017-07-04T01:36:10.461Z,1013.44
2017-07-04T01:37:10.440Z,1013.43
2017-07-04T01:38:10.420Z,1013.44
2017-07-04T01:39:10.399Z,1013.44
2017-07-04T01:40:10.379Z,1013.44
2017-07-04T01:41:10.362Z,1013.46
2017-07-04T01:42:10.341Z,1013.5
2017-07-04T01:43:10.324Z,1013.5
2017-07-04T01:44:10.298Z,1013.48
2017-07-04T01:45:10.277Z,1013.5
2017-07-04T01:46:10.259Z,1013.5
2017-07-04T01:47:10.237Z,1013.47
2017-07-04T01:48:10.219Z,1013.5
2017-07-04T01:49:10.199Z,1013.49
2017-07-04T01:50:10.177Z,1013.51
2017-07-04T01:51:10.179Z,1013.51
2017-07-04T01:52:10.135Z,1013.53
2017-07-04T01:53:10.138Z,1013.5
2017-07-04T01:54:10.092Z,1013.53
2017-07-04T01:55:10.075Z,1013.53
2017-07-04T01:56:10.059Z,1013.55
2017-07-04T01:57:10.035Z,1013.57
2017-07-04T01:58:10.014Z,1013.59
2017-07-04T01:59:09.995Z,1013.61
2017-07-04T02:00:09.974Z,1013.58
2017-07-04T02:01:09.954Z,1013.59
2017-07-04T02:02:09.935Z,1013.58
2017-07-04T02:03:09.918Z,1013.58
2017-07-04T02:04:09.895Z,1013.58
2017-07-04T02:05:09.873Z,1013.59
2017-07-04T02:06:09.852Z,1013.58
2017-07-04T02:07:10.084Z,1013.59
2017-07-04T02:08:09.814Z,1013.6
2017-07-04T02:09:09.793Z,1013.61
2017-07-04T02:10:09.770Z,1013.63
2017-07-04T02:11:09.752Z,1013.6
2017-07-04T02:12:09.735Z,1013.59
2017-07-04T02:13:09.712Z,1013.59
2017-07-04T02:14:09.697Z,1013.61
2017-07-04T02:15:09.672Z,1013.58
2017-07-04T02:16:09.652Z,1013.55
2017-07-04T02:17:09.631Z,1013.57
2017-07-04T02:18:09.612Z,1013.63
2017-07-04T02:19:09.591Z,1013.61
2017-07-04T02:20:09.575Z,1013.61
2017-07-04T02:21:09.550Z,1013.57
2017-07-04T02:22:09.533Z,1013.59
2017-07-04T02:23:09.511Z,1013.58
2017-07-04T02:24:09.489Z,1013.55
2017-07-04T02:25:09.470Z,1013.5
2017-07-04T02:26:09.454Z,1013.5
2017-07-04T02:27:09.431Z,1013.51
2017-07-04T02:28:09.411Z,1013.51
2017-07-04T02:29:09.390Z,1013.46
2017-07-04T02:30:09.367Z,1013.48
2017-07-04T02:31:09.350Z,1013.45
2017-07-04T02:32:09.331Z,1013.5
2017-07-04T02:33:09.309Z,1013.48
2017-07-04T02:34:09.291Z,1013.5
2017-07-04T02:35:09.269Z,1013.52
2017-07-04T02:36:09.251Z,1013.47
2017-07-04T02:37:09.230Z,1013.52
2017-07-04T02:38:09.209Z,1013.48
2017-07-04T02:39:09.190Z,1013.49
2017-07-04T02:40:09.169Z,1013.48
2017-07-04T02:41:09.150Z,1013.49
2017-07-04T02:42:09.130Z,1013.48
2017-07-04T02:43:09.110Z,1013.52
2017-07-04T02:44:09.086Z,1013.51
2017-07-04T02:45:09.069Z,1013.6
2017-07-04T02:46:09.047Z,1013.57
2017-07-04T02:47:09.028Z,1013.55
2017-07-04T02:48:09.008Z,1013.58
2017-07-04T02:49:08.986Z,1013.59
2017-07-04T02:50:08.967Z,1013.64
2017-07-04T02:51:08.947Z,1013.62
2017-07-04T02:52:08.928Z,1013.65
2017-07-04T02:53:08.911Z,1013.64
2017-07-04T02:54:08.885Z,1013.66
2017-07-04T02:55:08.869Z,1013.61
2017-07-04T02:56:08.846Z,1013.65
2017-07-04T02:57:08.826Z,1013.66
2017-07-04T02:58:08.807Z,1013.68
2017-07-04T02:59:08.786Z,1013.68
2017-07-04T03:00:08.764Z,1013.68
2017-07-04T03:01:08.745Z,1013.65
2017-07-04T03:02:08.725Z,1013.69
2017-07-04T03:03:08.709Z,1013.71
2017-07-04T03:04:08.682Z,1013.66
2017-07-04T03:05:08.664Z,1013.65
2017-07-04T03:06:08.649Z,1013.66
2017-07-04T03:07:08.623Z,1013.64
2017-07-04T03:08:08.604Z,1013.66
2017-07-04T03:09:08.586Z,1013.68
2017-07-04T03:10:08.564Z,1013.62
2017-07-04T03:11:08.543Z,1013.63
2017-07-04T03:12:08.529Z,1013.61
2017-07-04T03:13:08.502Z,1013.62
2017-07-04T03:14:08.483Z,1013.65
2017-07-04T03:15:08.462Z,1013.66
2017-07-04T03:16:08.442Z,1013.68
2017-07-04T03:17:08.424Z,1013.69
2017-07-04T03:18:08.403Z,1013.67
2017-07-04T03:19:08.382Z,1013.65
2017-07-04T03:20:08.365Z,1013.65
2017-07-04T03:21:08.343Z,1013.68
2017-07-04T03:22:08.321Z,1013.68
2017-07-04T03:23:08.302Z,1013.72
2017-07-04T03:24:08.280Z,1013.71
2017-07-04T03:25:08.262Z,1013.72
2017-07-04T03:26:08.241Z,1013.71
2017-07-04T03:27:08.225Z,1013.67
2017-07-04T03:28:08.200Z,1013.72
2017-07-04T03:29:08.179Z,1013.69
2017-07-04T03:30:08.159Z,1013.72
2017-07-04T03:31:08.137Z,1013.71
2017-07-04T03:32:08.122Z,1013.74
2017-07-04T03:33:08.100Z,1013.77
2017-07-04T03:34:08.079Z,1013.77
2017-07-04T03:35:08.060Z,1013.77
2017-07-04T03:36:08.040Z,1013.78
2017-07-04T03:37:08.019Z,1013.77
2017-07-04T03:38:08.000Z,1013.77
2017-07-04T03:39:07.979Z,1013.78
2017-07-04T03:40:07.960Z,1013.8
2017-07-04T03:41:07.939Z,1013.86
2017-07-04T03:42:07.919Z,1013.83
2017-07-04T03:43:07.897Z,1013.87
2017-07-04T03:44:07.879Z,1013.84
2017-07-04T03:45:07.859Z,1013.88
2017-07-04T03:46:07.838Z,1013.87
2017-07-04T03:47:07.820Z,1013.89
2017-07-04T03:48:07.799Z,1013.9
2017-07-04T03:49:07.779Z,1013.86
2017-07-04T03:50:07.761Z,1013.92
2017-07-04T03:51:07.738Z,1013.9
2017-07-04T03:52:07.719Z,1013.9
2017-07-04T03:53:07.698Z,1013.95
2017-07-04T03:54:07.675Z,1013.98
2017-07-04T03:55:07.664Z,1014.01
2017-07-04T03:56:07.642Z,1013.99
2017-07-04T03:57:07.619Z,1014.05
2017-07-04T03:58:07.598Z,1014.07
2017-07-04T03:59:07.579Z,1014.04
2017-07-04T04:00:07.557Z,1014.08
2017-07-04T04:01:07.538Z,1014.07
2017-07-04T04:02:07.517Z,1014.09
2017-07-04T04:03:07.498Z,1014.08
2017-07-04T04:04:07.479Z,1014.09
2017-07-04T04:05:07.456Z,1014.05
2017-07-04T04:06:07.436Z,1014.05
2017-07-04T04:07:07.418Z,1014.04
2017-07-04T04:08:07.400Z,1013.99
2017-07-04T04:09:07.377Z,1013.99
2017-07-04T04:10:07.357Z,1013.95
2017-07-04T04:11:07.335Z,1013.93
2017-07-04T04:12:07.316Z,1013.92
2017-07-04T04:13:07.295Z,1013.88
2017-07-04T04:14:07.277Z,1013.91
2017-07-04T04:15:07.258Z,1013.9
2017-07-04T04:16:07.236Z,1013.86
2017-07-04T04:17:07.217Z,1013.86
2017-07-04T04:18:07.195Z,1013.86
2017-07-04T04:19:07.176Z,1013.84
2017-07-04T04:20:07.156Z,1013.87
2017-07-04T04:21:07.144Z,1013.86
2017-07-04T04:22:07.116Z,1013.84
2017-07-04T04:23:07.095Z,1013.88
2017-07-04T04:24:07.077Z,1013.87
2017-07-04T04:25:07.055Z,1013.86
2017-07-04T04:26:07.036Z,1013.94
2017-07-04T04:27:07.017Z,1013.92
2017-07-04T04:28:06.995Z,1014.03
2017-07-04T04:29:06.976Z,1014.04
2017-07-04T04:30:06.957Z,1014.04
2017-07-04T04:31:06.938Z,1014.07
2017-07-04T04:32:06.917Z,1014.08
2017-07-04T04:33:06.898Z,1014.12
2017-07-04T04:34:06.878Z,1014.18
2017-07-04T04:35:06.857Z,1014.18
2017-07-04T04:36:06.839Z,1014.16
2017-07-04T04:37:06.819Z,1014.15
2017-07-04T04:38:06.802Z,1014.2
2017-07-04T04:39:06.778Z,1014.17
2017-07-04T04:40:06.759Z,1014.17
2017-07-04T04:41:06.740Z,1014.2
2017-07-04T04:42:06.717Z,1014.18
2017-07-04T04:43:06.698Z,1014.18
2017-07-04T04:44:06.680Z,1014.23
2017-07-04T04:45:06.658Z,1014.27
2017-07-04T04:46:06.640Z,1014.28
2017-07-04T04:47:06.621Z,1014.2
2017-07-04T04:48:06.601Z,1014.26
2017-07-04T04:49:06.584Z,1014.3
2017-07-04T04:50:06.566Z,1014.28
2017-07-04T04:51:06.546Z,1014.29
2017-07-04T04:52:06.578Z,1014.26
2017-07-04T04:53:06.504Z,1014.27
2017-07-04T04:54:06.488Z,1014.24
2017-07-04T04:55:06.468Z,1014.22
2017-07-04T04:56:06.449Z,1014.22
2017-07-04T04:57:06.430Z,1014.2
2017-07-04T04:58:06.408Z,1014.22
2017-07-04T04:59:06.390Z,1014.23
2017-07-04T05:00:06.371Z,1014.23
2017-07-04T05:01:06.351Z,1014.24
2017-07-04T05:02:06.332Z,1014.24
2017-07-04T05:03:06.315Z,1014.28
2017-07-04T05:04:06.293Z,1014.27
2017-07-04T05:05:06.275Z,1014.28
2017-07-04T05:06:06.253Z,1014.26
2017-07-04T05:07:06.234Z,1014.26
2017-07-04T05:08:06.211Z,1014.3
2017-07-04T05:09:06.196Z,1014.35
2017-07-04T05:10:06.177Z,1014.32
2017-07-04T05:11:06.157Z,1014.34
2017-07-04T05:12:06.137Z,1014.33
2017-07-04T05:13:06.117Z,1014.3
2017-07-04T05:14:06.097Z,1014.36
2017-07-04T05:15:06.081Z,1014.4
2017-07-04T05:16:06.061Z,1014.4
2017-07-04T05:17:06.038Z,1014.39
2017-07-04T05:18:06.019Z,1014.36
2017-07-04T05:19:05.999Z,1014.38
2017-07-04T05:20:05.978Z,1014.37
2017-07-04T05:21:05.962Z,1014.34
2017-07-04T05:22:05.941Z,1014.34
2017-07-04T05:23:05.920Z,1014.33
2017-07-04T05:24:05.902Z,1014.35
2017-07-04T05:25:05.886Z,1014.3
2017-07-04T05:26:05.861Z,1014.31
2017-07-04T05:27:05.841Z,1014.34
2017-07-04T05:28:05.822Z,1014.33
2017-07-04T05:29:05.806Z,1014.34
2017-07-04T05:30:05.784Z,1014.32
2017-07-04T05:31:05.762Z,1014.3
2017-07-04T05:32:05.748Z,1014.32
2017-07-04T05:33:05.724Z,1014.3
2017-07-04T05:34:05.703Z,1014.24
2017-07-04T05:35:05.684Z,1014.22
2017-07-04T05:36:05.669Z,1014.23
2017-07-04T05:37:05.643Z,1014.25
2017-07-04T05:38:05.625Z,1014.24
2017-07-04T05:39:05.605Z,1014.24
2017-07-04T05:40:05.587Z,1014.2
2017-07-04T05:41:05.567Z,1014.23
2017-07-04T05:42:05.545Z,1014.25
2017-07-04T05:43:05.527Z,1014.24
2017-07-04T05:44:05.504Z,1014.24
2017-07-04T05:45:05.488Z,1014.23
2017-07-04T05:46:05.467Z,1014.24
2017-07-04T05:47:05.446Z,1014.24
2017-07-04T05:48:05.426Z,1014.29
2017-07-04T05:49:05.405Z,1014.29
2017-07-04T05:50:05.390Z,1014.33
2017-07-04T05:51:05.366Z,1014.36
2017-07-04T05:52:05.347Z,1014.34
2017-07-04T05:53:05.327Z,1014.31
2017-07-04T05:54:05.309Z,1014.34
2017-07-04T05:55:05.290Z,1014.31
2017-07-04T05:56:05.268Z,1014.33
2017-07-04T05:57:05.250Z,1014.34
2017-07-04T05:58:05.236Z,1014.31
2017-07-04T05:59:05.261Z,1014.34
2017-07-04T06:00:05.192Z,1014.38
2017-07-04T06:01:05.171Z,1014.39
2017-07-04T06:02:05.151Z,1014.38
2017-07-04T06:03:05.132Z,1014.42
2017-07-04T06:04:05.111Z,1014.46
2017-07-04T06:05:05.093Z,1014.41
2017-07-04T06:06:05.077Z,1014.43
2017-07-04T06:07:05.054Z,1014.51
2017-07-04T06:08:05.037Z,1014.47
2017-07-04T06:09:05.014Z,1014.52
2017-07-04T06:10:04.994Z,1014.57
2017-07-04T06:11:04.976Z,1014.57
2017-07-04T06:12:04.956Z,1014.57
2017-07-04T06:13:04.935Z,1014.54
2017-07-04T06:14:04.916Z,1014.51
2017-07-04T06:15:04.896Z,1014.58
2017-07-04T06:16:04.876Z,1014.56
2017-07-04T06:17:04.857Z,1014.61
2017-07-04T06:18:04.836Z,1014.58
2017-07-04T06:19:04.819Z,1014.62
2017-07-04T06:20:04.798Z,1014.61
2017-07-04T06:21:04.780Z,1014.61
2017-07-04T06:22:04.761Z,1014.66
2017-07-04T06:23:04.740Z,1014.7
2017-07-04T06:24:04.718Z,1014.7
2017-07-04T06:25:04.699Z,1014.71
2017-07-04T06:26:04.681Z,1014.68
2017-07-04T06:27:04.666Z,1014.75
2017-07-04T06:28:04.639Z,1014.7
2017-07-04T06:29:04.621Z,1014.69
2017-07-04T06:30:04.600Z,1014.72
2017-07-04T06:31:04.585Z,1014.73
2017-07-04T06:32:04.560Z,1014.73
2017-07-04T06:33:04.540Z,1014.71
2017-07-04T06:34:04.521Z,1014.75
2017-07-04T06:35:04.504Z,1014.79
2017-07-04T06:36:04.484Z,1014.74
2017-07-04T06:37:04.465Z,1014.77
2017-07-04T06:38:04.444Z,1014.8
2017-07-04T06:39:04.424Z,1014.83
2017-07-04T06:40:04.403Z,1014.81
2017-07-04T06:41:04.389Z,1014.84
2017-07-04T06:42:04.365Z,1014.87
2017-07-04T06:43:04.343Z,1014.92
2017-07-04T06:44:04.327Z,1014.89
2017-07-04T06:45:04.303Z,1014.93
2017-07-04T06:46:04.283Z,1014.93
2017-07-04T06:47:04.269Z,1014.94
2017-07-04T06:48:04.242Z,1014.99
2017-07-04T06:49:04.223Z,1015
2017-07-04T06:50:04.205Z,1014.98
2017-07-04T06:51:04.186Z,1015.02
2017-07-04T06:52:04.165Z,1014.99
2017-07-04T06:53:04.144Z,1015.01
2017-07-04T06:54:04.126Z,1015.03
2017-07-04T06:55:04.107Z,1015.01
2017-07-04T06:56:04.304Z,1014.99
2017-07-04T06:57:04.064Z,1014.98
2017-07-04T06:58:04.044Z,1014.99
2017-07-04T06:59:04.028Z,1014.97
2017-07-04T07:00:04.003Z,1015.03
2017-07-04T07:01:03.989Z,1015.02
2017-07-04T07:02:03.964Z,1014.96
2017-07-04T07:03:03.946Z,1015.02
2017-07-04T07:04:03.930Z,1015.02
2017-07-04T07:05:03.905Z,1014.97
2017-07-04T07:06:03.886Z,1015.02
2017-07-04T07:07:03.865Z,1015.03
2017-07-04T07:08:03.849Z,1015.03
2017-07-04T07:09:03.880Z,1015.04
2017-07-04T07:10:03.813Z,1015.05
2017-07-04T07:12:03.766Z,1015.08
2017-07-04T07:13:03.747Z,1015.05
2017-07-04T07:14:03.727Z,1015.09
2017-07-04T07:15:03.708Z,1015.08
2017-07-04T07:16:03.686Z,1015.08
2017-07-04T07:17:03.667Z,1015.12
2017-07-04T07:18:03.649Z,1015.07
2017-07-04T07:19:03.631Z,1015.11
2017-07-04T07:20:03.611Z,1015.09
2017-07-04T07:21:03.591Z,1015.12
2017-07-04T07:22:03.571Z,1015.15
2017-07-04T07:23:03.549Z,1015.15
2017-07-04T07:24:03.529Z,1015.18
2017-07-04T07:25:03.509Z,1015.19
2017-07-04T07:26:03.493Z,1015.19
2017-07-04T07:27:03.470Z,1015.23
2017-07-04T07:28:03.453Z,1015.24
2017-07-04T07:29:03.474Z,1015.21
2017-07-04T07:30:03.416Z,1015.26
2017-07-04T07:31:03.389Z,1015.24
2017-07-04T07:32:03.370Z,1015.25
2017-07-04T07:33:03.353Z,1015.22
2017-07-04T07:34:03.330Z,1015.25
2017-07-04T07:35:03.314Z,1015.26
2017-07-04T07:36:03.296Z,1015.28
2017-07-04T07:37:03.273Z,1015.31
2017-07-04T07:38:03.251Z,1015.28
2017-07-04T07:39:03.238Z,1015.29
2017-07-04T07:40:03.213Z,1015.34
2017-07-04T07:41:03.195Z,1015.28
2017-07-04T07:42:03.175Z,1015.3
2017-07-04T07:43:03.159Z,1015.34
2017-07-04T07:44:03.137Z,1015.32
2017-07-04T07:45:03.116Z,1015.35
2017-07-04T07:46:03.099Z,1015.38
2017-07-04T07:47:03.080Z,1015.32
2017-07-04T07:48:03.059Z,1015.37
2017-07-04T07:49:03.135Z,1015.35
2017-07-04T07:50:03.018Z,1015.37
2017-07-04T07:51:02.998Z,1015.38
2017-07-04T07:52:02.979Z,1015.37
2017-07-04T07:53:02.961Z,1015.41
2017-07-04T07:54:02.944Z,1015.32
2017-07-04T07:55:02.922Z,1015.31
2017-07-04T07:56:02.907Z,1015.34
2017-07-04T07:57:02.891Z,1015.34
2017-07-04T07:58:02.862Z,1015.29
2017-07-04T07:59:02.847Z,1015.3
2017-07-04T08:00:02.827Z,1015.29
2017-07-04T08:01:02.807Z,1015.25
2017-07-04T08:02:02.789Z,1015.25
2017-07-04T08:03:02.764Z,1015.27
2017-07-04T08:04:02.751Z,1015.24
2017-07-04T08:07:34.466Z,1015.24
2017-07-04T08:08:34.436Z,1015.26
2017-07-04T08:09:34.405Z,1015.24
2017-07-04T08:10:34.391Z,1015.26
2017-07-04T08:11:34.367Z,1015.31
2017-07-04T08:12:34.359Z,1015.29
2017-07-04T08:13:34.340Z,1015.32
2017-07-04T08:14:34.363Z,1015.32
2017-07-04T08:15:34.294Z,1015.35
2017-07-04T08:16:34.281Z,1015.3
2017-07-04T08:17:34.261Z,1015.35
2017-07-04T08:18:34.254Z,1015.36
2017-07-04T08:19:34.231Z,1015.32
2017-07-04T08:20:34.224Z,1015.29
2017-07-04T08:21:34.193Z,1015.37
2017-07-04T08:22:34.172Z,1015.34
2017-07-04T08:23:34.164Z,1015.36
2017-07-04T08:24:34.130Z,1015.35
2017-07-04T08:25:34.118Z,1015.36
2017-07-04T08:26:34.161Z,1015.36
2017-07-04T08:27:34.082Z,1015.33
2017-07-04T08:28:34.074Z,1015.35
2017-07-04T08:29:34.046Z,1015.34
2017-07-04T08:30:34.032Z,1015.41
2017-07-04T08:31:34.012Z,1015.43
2017-07-04T08:32:33.993Z,1015.43
2017-07-04T08:33:33.973Z,1015.4
2017-07-04T08:34:33.960Z,1015.39
2017-07-04T08:35:33.938Z,1015.46
2017-07-04T08:36:33.922Z,1015.47
2017-07-04T08:37:33.904Z,1015.46
2017-07-04T08:38:33.882Z,1015.41
2017-07-04T08:39:33.868Z,1015.39
2017-07-04T08:40:33.853Z,1015.48
2017-07-04T08:41:33.834Z,1015.41
2017-07-04T08:42:33.813Z,1015.42
2017-07-04T08:43:33.794Z,1015.36
2017-07-04T08:44:33.781Z,1015.36
2017-07-04T08:45:33.763Z,1015.36
2017-07-04T08:46:33.744Z,1015.35
2017-07-04T08:47:33.727Z,1015.31
2017-07-04T08:48:33.716Z,1015.34
2017-07-04T08:49:33.697Z,1015.34
2017-07-04T08:50:33.679Z,1015.37
2017-07-04T08:51:33.664Z,1015.39
2017-07-04T08:52:33.651Z,1015.35
2017-07-04T08:53:33.635Z,1015.36
2017-07-04T08:54:33.613Z,1015.34
2017-07-04T08:55:33.597Z,1015.27
2017-07-04T08:56:33.583Z,1015.25
2017-07-04T08:57:33.568Z,1015.27
2017-07-04T08:58:33.552Z,1015.26
2017-07-04T08:59:33.838Z,1015.22
2017-07-04T09:00:33.519Z,1015.29
2017-07-04T09:01:33.560Z,1015.27
2017-07-04T09:02:33.493Z,1015.29
2017-07-04T09:03:33.479Z,1015.2
2017-07-04T09:04:33.458Z,1015.21
2017-07-04T09:05:33.443Z,1015.25
2017-07-04T09:06:33.480Z,1015.23
2017-07-04T09:07:33.414Z,1015.24
2017-07-04T09:08:33.397Z,1015.23
2017-07-04T09:09:33.435Z,1015.27
2017-07-04T09:10:33.371Z,1015.26
2017-07-04T09:11:33.354Z,1015.21
2017-07-04T09:12:33.345Z,1015.22
2017-07-04T09:13:33.376Z,1015.31
2017-07-04T09:14:33.412Z,1015.24
2017-07-04T09:15:33.297Z,1015.27
2017-07-04T09:16:33.283Z,1015.26
2017-07-04T09:17:33.270Z,1015.26
2017-07-04T09:18:33.256Z,1015.29
2017-07-04T09:19:33.239Z,1015.27
2017-07-04T09:20:33.227Z,1015.26
2017-07-04T09:21:33.205Z,1015.3
2017-07-04T09:22:33.197Z,1015.33
2017-07-04T09:23:33.178Z,1015.31
2017-07-04T09:24:33.165Z,1015.31
2017-07-04T09:25:33.159Z,1015.22
2017-07-04T09:26:33.135Z,1015.29
2017-07-04T09:27:33.119Z,1015.32
2017-07-04T09:28:33.106Z,1015.31
2017-07-04T09:29:33.133Z,1015.26
2017-07-04T09:30:33.078Z,1015.33
2017-07-04T09:31:33.064Z,1015.28
2017-07-04T09:32:33.097Z,1015.27
2017-07-04T09:33:33.031Z,1015.32
2017-07-04T09:34:33.017Z,1015.33
2017-07-04T09:35:33.004Z,1015.29
2017-07-04T09:36:33.044Z,1015.37
2017-07-04T09:37:32.983Z,1015.29
2017-07-04T09:38:32.970Z,1015.25
2017-07-04T09:39:32.954Z,1015.29
2017-07-04T09:40:32.941Z,1015.32
2017-07-04T09:41:32.927Z,1015.3
2017-07-04T09:42:32.916Z,1015.33
2017-07-04T09:43:32.903Z,1015.35
2017-07-04T09:44:32.893Z,1015.36
2017-07-04T09:45:32.878Z,1015.41
2017-07-04T09:46:32.866Z,1015.44
2017-07-04T09:47:32.856Z,1015.38
2017-07-04T09:48:32.841Z,1015.36
2017-07-04T09:49:32.833Z,1015.36
2017-07-04T09:50:32.819Z,1015.38
2017-07-04T09:51:32.803Z,1015.34
2017-07-04T09:52:32.796Z,1015.37
2017-07-04T09:53:32.784Z,1015.33
2017-07-04T09:54:32.774Z,1015.35
2017-07-04T09:55:32.764Z,1015.34
2017-07-04T09:56:32.750Z,1015.39
2017-07-04T09:57:32.738Z,1015.37
2017-07-04T09:58:32.733Z,1015.39
2017-07-04T09:59:32.722Z,1015.33
2017-07-04T10:00:32.708Z,1015.34
2017-07-04T10:01:32.697Z,1015.39
2017-07-04T10:02:32.686Z,1015.37
2017-07-04T10:03:32.724Z,1015.38
2017-07-04T10:04:32.666Z,1015.37
2017-07-04T10:05:32.655Z,1015.38
2017-07-04T10:06:32.643Z,1015.4
2017-07-04T10:07:32.630Z,1015.38
2017-07-04T10:08:32.625Z,1015.37
2017-07-04T10:09:32.609Z,1015.43
2017-07-04T10:10:32.601Z,1015.36
2017-07-04T10:11:32.588Z,1015.33
2017-07-04T10:12:32.582Z,1015.37
2017-07-04T10:13:32.625Z,1015.37
2017-07-04T10:14:32.560Z,1015.39
2017-07-04T10:15:32.548Z,1015.33
2017-07-04T10:16:32.536Z,1015.34
2017-07-04T10:17:32.526Z,1015.36
2017-07-04T10:18:32.517Z,1015.32
2017-07-04T10:19:32.508Z,1015.34
2017-07-04T10:20:32.544Z,1015.32
2017-07-04T10:21:32.479Z,1015.36
2017-07-04T10:22:32.470Z,1015.37
2017-07-04T10:23:32.459Z,1015.35
2017-07-04T10:24:32.443Z,1015.36
2017-07-04T10:25:32.481Z,1015.31
2017-07-04T10:26:32.420Z,1015.36
2017-07-04T10:27:32.406Z,1015.33
2017-07-04T10:28:32.395Z,1015.26
2017-07-04T10:29:32.382Z,1015.24
2017-07-04T10:30:32.369Z,1015.21
2017-07-04T10:31:32.361Z,1015.23
2017-07-04T10:32:32.345Z,1015.19
2017-07-04T10:33:32.335Z,1015.19
2017-07-04T10:34:32.334Z,1015.16
2017-07-04T10:35:32.310Z,1015.18
2017-07-04T10:36:32.299Z,1015.18
2017-07-04T10:37:32.291Z,1015.14
2017-07-04T10:38:32.280Z,1015.08
2017-07-04T10:39:32.269Z,1015.06
2017-07-04T10:40:32.256Z,1015.11
2017-07-04T10:41:32.247Z,1015.12
2017-07-04T10:42:32.292Z,1015.12
2017-07-04T10:43:32.224Z,1015.11
2017-07-04T10:44:32.213Z,1015.14
2017-07-04T10:45:32.204Z,1015.14
2017-07-04T10:46:32.195Z,1015.16
2017-07-04T10:47:32.183Z,1015.12
2017-07-04T10:48:32.174Z,1015.2
2017-07-04T10:49:32.170Z,1015.12
2017-07-04T10:50:32.151Z,1015.12
2017-07-04T10:51:32.143Z,1015.1
2017-07-04T10:52:32.130Z,1015.11
2017-07-04T10:53:32.121Z,1015.12
2017-07-04T10:54:32.110Z,1015.09
2017-07-04T10:55:32.098Z,1015.12
2017-07-04T10:56:32.087Z,1015.12
2017-07-04T10:57:32.074Z,1015.17
2017-07-04T10:58:32.065Z,1015.2
2017-07-04T10:59:32.053Z,1015.18
2017-07-04T11:00:32.041Z,1015.17
2017-07-04T11:01:32.029Z,1015.1
2017-07-04T11:02:32.015Z,1015.15
2017-07-04T11:03:31.997Z,1015.14
2017-07-04T11:04:31.988Z,1015.15
2017-07-04T11:05:31.974Z,1015.16
2017-07-04T11:06:31.963Z,1015.12
2017-07-04T11:07:31.950Z,1015.13
2017-07-04T11:08:31.935Z,1015.13
2017-07-04T11:09:31.923Z,1015.13
2017-07-04T11:10:31.912Z,1015.11
2017-07-04T11:11:31.897Z,1015.08
2017-07-04T11:12:31.879Z,1015.09
2017-07-04T11:13:31.873Z,1015.01
2017-07-04T11:14:31.853Z,1014.94
2017-07-04T11:15:31.838Z,1015.03
2017-07-04T11:16:31.824Z,1015.06
2017-07-04T11:17:31.810Z,1015.11
2017-07-04T11:18:31.792Z,1015.12
2017-07-04T11:19:31.830Z,1015.06
2017-07-04T11:20:31.766Z,1015.13
2017-07-04T11:21:31.751Z,1015.1
2017-07-04T11:22:31.738Z,1015.1
2017-07-04T11:23:31.724Z,1015.14
2017-07-04T11:24:31.708Z,1015.06
2017-07-04T11:25:31.695Z,1015.06
2017-07-04T11:26:31.678Z,1015.07
2017-07-04T11:27:31.664Z,1015.15
2017-07-04T11:28:31.652Z,1015.09
2017-07-04T11:29:31.636Z,1015.11
2017-07-04T11:30:31.618Z,1015.07
2017-07-04T11:31:31.605Z,1015.07
2017-07-04T11:32:31.589Z,1015.1
2017-07-04T11:33:31.575Z,1015.13
2017-07-04T11:34:31.559Z,1015.08
2017-07-04T11:35:31.546Z,1015.11
2017-07-04T11:36:31.528Z,1015.12
2017-07-04T11:37:31.521Z,1015.12
2017-07-04T11:38:31.499Z,1015.08
2017-07-04T11:39:31.487Z,1015.08
2017-07-04T11:40:31.470Z,1015.1
2017-07-04T11:41:31.453Z,1015.07
2017-07-04T11:42:31.441Z,1015.07
2017-07-04T11:43:31.424Z,1015.05
2017-07-04T11:44:31.413Z,1015.08
2017-07-04T11:45:31.392Z,1015.07
2017-07-04T11:46:31.377Z,1015.06
2017-07-04T11:47:31.361Z,1015.05
2017-07-04T11:48:31.350Z,1015
2017-07-04T11:49:31.331Z,1014.97
2017-07-04T11:50:31.318Z,1014.95
2017-07-04T11:51:31.301Z,1015
2017-07-04T11:52:31.283Z,1015.02
2017-07-04T11:53:31.268Z,1015
2017-07-04T11:54:31.253Z,1015.04
2017-07-04T11:55:31.238Z,1014.98
2017-07-04T11:56:31.222Z,1015.03
2017-07-04T11:57:31.205Z,1015.01
2017-07-04T11:58:31.192Z,1014.96
2017-07-04T11:59:31.171Z,1014.93
2017-07-04T12:00:31.156Z,1014.93
2017-07-04T12:01:31.142Z,1014.93
2017-07-04T12:02:31.126Z,1015.01
2017-07-04T12:03:31.106Z,1014.97
2017-07-04T12:04:31.089Z,1014.94
2017-07-04T12:05:31.078Z,1014.97
2017-07-04T12:06:31.060Z,1014.9
2017-07-04T12:07:31.047Z,1014.92
2017-07-04T12:08:31.027Z,1014.94
2017-07-04T12:09:31.009Z,1014.9
2017-07-04T12:10:31.042Z,1014.93
2017-07-04T12:11:30.975Z,1014.96